createdAt,value
2018-07-03T00:01:06.895Z,13.16
2018-07-03T00:03:38.994Z,13.17
2018-07-03T00:06:11.131Z,13.00
2018-07-03T00:08:43.275Z,12.85
2018-07-03T00:11:16.597Z,12.97
2018-07-03T00:13:49.502Z,12.93
2018-07-03T00:16:27.371Z,13.06
2018-07-03T00:18:59.463Z,13.05
2018-07-03T00:21:31.576Z,13.16
2018-07-03T00:24:03.773Z,13.29
2018-07-03T00:26:35.840Z,13.31
2018-07-03T00:29:07.946Z,13.27
2018-07-03T00:31:40.028Z,13.16
2018-07-03T00:34:12.112Z,13.10
2018-07-03T00:36:44.176Z,13.11
2018-07-03T00:39:16.265Z,13.08
2018-07-03T00:41:48.379Z,12.91
2018-07-03T00:44:20.486Z,12.86
2018-07-03T00:46:52.557Z,12.86
2018-07-03T00:49:24.621Z,12.71
2018-07-03T00:51:56.724Z,12.66
2018-07-03T00:54:28.793Z,12.71
2018-07-03T00:57:00.875Z,12.69
2018-07-03T00:59:32.976Z,12.61
2018-07-03T01:02:05.683Z,12.43
2018-07-03T01:04:37.800Z,12.44
2018-07-03T01:07:09.909Z,12.36
2018-07-03T01:09:42.044Z,12.25
2018-07-03T01:12:14.129Z,12.28
2018-07-03T01:14:46.232Z,12.40
2018-07-03T01:17:18.396Z,12.53
2018-07-03T01:19:50.500Z,12.51
2018-07-03T01:22:22.594Z,12.49
2018-07-03T01:24:54.696Z,12.46
2018-07-03T01:27:26.759Z,12.44
2018-07-03T01:29:58.828Z,12.33
2018-07-03T01:32:30.916Z,12.31
2018-07-03T01:35:03.045Z,12.23
2018-07-03T01:37:36.125Z,12.28
2018-07-03T01:40:08.308Z,12.16
2018-07-03T01:42:40.402Z,12.01
2018-07-03T01:45:12.519Z,11.90
2018-07-03T01:47:44.582Z,11.87
2018-07-03T01:50:16.625Z,11.95
2018-07-03T01:52:49.531Z,11.92
2018-07-03T01:55:21.603Z,12.02
2018-07-03T01:57:53.772Z,12.00
2018-07-03T02:00:25.989Z,12.01
2018-07-03T02:02:58.093Z,11.84
2018-07-03T02:05:30.215Z,11.83
2018-07-03T02:08:02.323Z,11.77
2018-07-03T02:10:34.388Z,11.66
2018-07-03T02:13:06.479Z,11.63
2018-07-03T02:15:38.553Z,11.55
2018-07-03T02:18:10.621Z,11.54
2018-07-03T02:20:42.719Z,11.48
2018-07-03T02:23:14.796Z,11.39
2018-07-03T02:25:46.863Z,11.49
2018-07-03T02:28:18.913Z,11.44
2018-07-03T02:30:50.998Z,11.40
2018-07-03T02:33:23.060Z,11.45
2018-07-03T02:35:55.160Z,11.44
2018-07-03T02:38:27.272Z,11.35
2018-07-03T02:40:59.336Z,11.29
2018-07-03T02:43:31.440Z,11.19
2018-07-03T02:46:03.882Z,11.25
2018-07-03T02:48:36.081Z,11.36
2018-07-03T02:51:08.226Z,11.27
2018-07-03T02:53:40.335Z,11.11
2018-07-03T02:56:12.462Z,11.09
2018-07-03T02:58:44.512Z,11.09
2018-07-03T03:01:16.621Z,11.07
2018-07-03T03:03:48.716Z,10.94
2018-07-03T03:06:20.775Z,10.99
2018-07-03T03:08:52.886Z,10.90
2018-07-03T03:11:25.065Z,11.01
2018-07-03T03:13:57.142Z,11.12
2018-07-03T03:16:29.216Z,11.28
2018-07-03T03:19:01.381Z,11.27
2018-07-03T03:21:33.495Z,11.28
2018-07-03T03:24:05.635Z,11.17
2018-07-03T03:26:37.769Z,11.11
2018-07-03T03:29:09.866Z,11.03
2018-07-03T03:31:41.944Z,10.83
2018-07-03T03:34:14.033Z,10.89
2018-07-03T03:36:46.137Z,10.89
2018-07-03T03:39:18.256Z,10.79
2018-07-03T03:41:50.534Z,10.93
2018-07-03T03:44:22.611Z,11.01
2018-07-03T03:46:54.687Z,11.07
2018-07-03T03:49:26.769Z,11.11
2018-07-03T03:51:58.851Z,11.17
2018-07-03T03:54:30.920Z,11.18
2018-07-03T03:57:02.998Z,11.36
2018-07-03T03:59:35.119Z,11.46
2018-07-03T04:02:07.278Z,11.57
2018-07-03T04:04:39.399Z,11.71
2018-07-03T04:07:11.531Z,11.81
2018-07-03T04:09:43.602Z,11.76
2018-07-03T04:12:15.745Z,11.80
2018-07-03T04:14:47.814Z,11.81
2018-07-03T04:17:19.955Z,11.91
2018-07-03T04:19:52.042Z,12.00
2018-07-03T04:22:24.091Z,12.09
2018-07-03T04:24:56.158Z,12.20
2018-07-03T04:27:28.263Z,12.81
2018-07-03T04:30:00.386Z,13.79
2018-07-03T04:32:32.485Z,14.54
2018-07-03T04:35:05.201Z,15.09
2018-07-03T04:37:37.342Z,15.73
2018-07-03T04:40:09.404Z,16.31
2018-07-03T04:42:41.549Z,17.25
2018-07-03T04:45:13.664Z,17.54
2018-07-03T04:47:45.781Z,17.89
2018-07-03T04:50:17.846Z,18.81
2018-07-03T04:52:49.916Z,19.23
2018-07-03T04:55:21.983Z,20.05
2018-07-03T04:57:54.064Z,19.82
2018-07-03T05:00:26.131Z,21.11
2018-07-03T05:02:58.499Z,21.82
2018-07-03T05:05:30.670Z,22.32
2018-07-03T05:08:02.816Z,22.21
2018-07-03T05:10:34.951Z,22.63
2018-07-03T05:13:07.048Z,22.19
2018-07-03T05:15:39.203Z,22.04
2018-07-03T05:18:11.300Z,23.54
2018-07-03T05:20:43.397Z,23.85
2018-07-03T05:23:15.567Z,24.49
2018-07-03T05:25:47.665Z,25.16
2018-07-03T05:28:19.768Z,25.18
2018-07-03T05:30:51.882Z,23.30
2018-07-03T05:33:23.997Z,22.21
2018-07-03T05:35:56.121Z,23.07
2018-07-03T05:38:28.230Z,23.12
2018-07-03T05:41:00.325Z,22.85
2018-07-03T05:43:32.529Z,23.30
2018-07-03T05:46:04.821Z,23.18
2018-07-03T05:51:15.731Z,24.65
2018-07-03T05:53:47.868Z,24.71
2018-07-03T05:56:19.974Z,24.91
2018-07-03T05:58:52.118Z,24.92
2018-07-03T06:01:24.199Z,25.55
2018-07-03T06:03:56.321Z,25.01
2018-07-03T06:06:28.444Z,25.60
2018-07-03T06:09:00.569Z,25.94
2018-07-03T06:11:32.689Z,25.57
2018-07-03T06:14:04.900Z,25.97
2018-07-03T06:16:37.059Z,26.69
2018-07-03T06:19:09.645Z,27.59
2018-07-03T06:21:41.771Z,27.62
2018-07-03T06:24:13.925Z,27.91
2018-07-03T06:26:46.053Z,28.05
2018-07-03T06:29:18.193Z,29.44
2018-07-03T06:31:50.331Z,29.19
2018-07-03T06:34:22.466Z,29.62
2018-07-03T06:36:54.598Z,29.41
2018-07-03T06:39:26.771Z,29.97
2018-07-03T06:41:59.053Z,29.43
2018-07-03T06:44:31.208Z,30.26
2018-07-03T06:47:03.348Z,30.88
2018-07-03T06:49:35.456Z,31.29
2018-07-03T06:52:07.618Z,31.67
2018-07-03T06:54:39.787Z,31.71
2018-07-03T06:57:11.891Z,32.37
2018-07-03T06:59:44.016Z,33.56
2018-07-03T07:02:16.176Z,32.85
2018-07-03T07:04:48.371Z,32.57
2018-07-03T07:07:20.507Z,33.14
2018-07-03T07:09:52.680Z,33.10
2018-07-03T07:12:24.859Z,32.50
2018-07-03T07:14:57.026Z,32.51
2018-07-03T07:17:29.112Z,32.99
2018-07-03T07:20:01.208Z,33.34
2018-07-03T07:22:33.325Z,34.00
2018-07-03T07:25:05.402Z,34.04
2018-07-03T07:27:37.549Z,34.93
2018-07-03T07:30:09.721Z,34.87
2018-07-03T07:32:41.883Z,34.00
2018-07-03T07:35:13.980Z,34.47
2018-07-03T07:37:46.103Z,34.05
2018-07-03T07:40:18.211Z,33.01
2018-07-03T07:42:50.320Z,34.02
2018-07-03T07:45:22.444Z,34.07
2018-07-03T07:47:54.592Z,34.55
2018-07-03T07:50:26.740Z,34.94
2018-07-03T07:52:58.859Z,35.42
2018-07-03T07:55:30.963Z,35.39
2018-07-03T07:58:03.131Z,35.78
2018-07-03T08:00:35.280Z,34.56
2018-07-03T08:03:07.392Z,33.52
2018-07-03T08:05:39.537Z,33.16
2018-07-03T08:08:11.640Z,34.09
2018-07-03T08:10:43.770Z,34.99
2018-07-03T08:13:15.903Z,34.37
2018-07-03T08:15:48.026Z,34.34
2018-07-03T08:18:20.155Z,33.56
2018-07-03T08:20:52.357Z,33.86
2018-07-03T08:23:24.415Z,34.92
2018-07-03T08:25:56.567Z,34.89
2018-07-03T08:28:28.671Z,35.18
2018-07-03T08:31:00.776Z,36.08
2018-07-03T08:33:32.871Z,34.89
2018-07-03T08:36:05.038Z,34.91
2018-07-03T08:38:37.169Z,34.45
2018-07-03T08:41:09.346Z,34.36
2018-07-03T08:43:41.477Z,33.66
2018-07-03T08:46:13.562Z,33.34
2018-07-03T08:48:45.662Z,33.08
2018-07-03T08:51:17.835Z,32.50
2018-07-03T08:53:50.180Z,32.61
2018-07-03T08:56:22.312Z,34.13
2018-07-03T08:58:54.786Z,34.05
2018-07-03T09:01:26.935Z,34.46
2018-07-03T09:03:59.043Z,33.44
2018-07-03T09:06:31.185Z,32.81
2018-07-03T09:09:06.240Z,32.98
2018-07-03T09:11:38.425Z,33.43
2018-07-03T09:14:10.540Z,33.48
2018-07-03T09:16:42.684Z,34.54
2018-07-03T09:19:14.840Z,36.28
2018-07-03T09:21:46.967Z,35.45
2018-07-03T09:24:19.092Z,35.74
2018-07-03T09:26:51.251Z,33.64
2018-07-03T09:29:23.500Z,33.45
2018-07-03T09:31:55.628Z,34.66
2018-07-03T09:34:27.779Z,33.67
2018-07-03T09:36:59.925Z,32.32
2018-07-03T09:39:32.067Z,33.02
2018-07-03T09:42:04.200Z,31.90
2018-07-03T09:44:36.344Z,31.68
2018-07-03T09:47:08.500Z,32.68
2018-07-03T09:49:40.664Z,32.85
2018-07-03T09:52:12.778Z,31.85
2018-07-03T09:54:44.918Z,32.86
2018-07-03T09:57:17.154Z,32.88
2018-07-03T09:59:49.260Z,32.19
2018-07-03T10:02:21.359Z,31.50
2018-07-03T10:04:53.479Z,32.33
2018-07-03T10:07:25.594Z,33.10
2018-07-03T10:09:57.735Z,33.03
2018-07-03T10:12:29.814Z,31.97
2018-07-03T10:15:01.961Z,33.27
2018-07-03T10:17:40.914Z,33.06
2018-07-03T10:20:13.036Z,33.82
2018-07-03T10:22:45.136Z,34.57
2018-07-03T10:25:17.290Z,35.17
2018-07-03T10:27:49.450Z,34.33
2018-07-03T10:30:21.539Z,34.22
2018-07-03T10:32:53.665Z,34.27
2018-07-03T10:35:25.734Z,33.93
2018-07-03T10:37:57.828Z,34.67
2018-07-03T10:40:29.976Z,34.48
2018-07-03T10:43:02.137Z,34.34
2018-07-03T10:45:34.290Z,34.21
2018-07-03T10:48:06.419Z,34.42
2018-07-03T10:50:38.626Z,34.05
2018-07-03T10:53:10.813Z,32.57
2018-07-03T10:55:43.113Z,32.86
2018-07-03T10:58:15.280Z,32.72
2018-07-03T11:00:47.389Z,32.49
2018-07-03T11:03:19.472Z,31.13
2018-07-03T11:05:51.574Z,31.00
2018-07-03T11:08:23.699Z,31.96
2018-07-03T11:10:56.206Z,32.56
2018-07-03T11:13:28.329Z,32.87
2018-07-03T11:16:00.424Z,32.15
2018-07-03T11:18:32.579Z,31.85
2018-07-03T11:21:04.780Z,32.56
2018-07-03T11:23:36.941Z,33.20
2018-07-03T11:26:09.070Z,31.13
2018-07-03T11:28:41.164Z,31.69
2018-07-03T11:31:13.293Z,32.68
2018-07-03T11:33:45.448Z,34.07
2018-07-03T11:36:17.539Z,33.28
2018-07-03T11:38:49.672Z,33.05
2018-07-03T11:41:21.817Z,33.43
2018-07-03T11:43:53.963Z,34.34
2018-07-03T11:46:26.089Z,34.66
2018-07-03T11:48:58.294Z,34.29
2018-07-03T11:51:30.391Z,32.34
2018-07-03T11:54:02.476Z,33.47
2018-07-03T11:56:34.629Z,33.23
2018-07-03T11:59:06.723Z,32.56
2018-07-03T12:01:38.840Z,33.29
2018-07-03T12:04:10.981Z,34.30
2018-07-03T12:06:43.136Z,34.45
2018-07-03T12:09:15.251Z,34.23
2018-07-03T12:11:47.404Z,34.51
2018-07-03T12:14:19.560Z,34.77
2018-07-03T12:16:51.717Z,34.78
2018-07-03T12:19:23.826Z,35.11
2018-07-03T12:21:56.005Z,34.08
2018-07-03T12:24:28.144Z,33.21
2018-07-03T12:27:00.307Z,34.82
2018-07-03T12:29:32.499Z,34.42
2018-07-03T12:32:04.807Z,34.12
2018-07-03T12:34:36.897Z,33.09
2018-07-03T12:37:08.981Z,33.67
2018-07-03T12:39:41.106Z,35.24
2018-07-03T12:42:13.280Z,35.33
2018-07-03T12:44:45.394Z,35.27
2018-07-03T12:47:17.533Z,33.73
2018-07-03T12:49:49.721Z,33.48
2018-07-03T12:52:21.807Z,35.29
2018-07-03T12:54:53.921Z,36.04
2018-07-03T12:57:26.208Z,36.47
2018-07-03T12:59:58.374Z,36.10
2018-07-03T13:02:30.515Z,35.75
2018-07-03T13:05:02.686Z,36.11
2018-07-03T13:07:34.908Z,34.54
2018-07-03T13:10:07.039Z,35.49
2018-07-03T13:12:39.221Z,36.28
2018-07-03T13:15:11.398Z,35.59
2018-07-03T13:17:43.509Z,34.96
2018-07-03T13:20:15.689Z,34.99
2018-07-03T13:22:47.811Z,35.40
2018-07-03T13:25:19.959Z,36.30
2018-07-03T13:27:52.049Z,36.50
2018-07-03T13:30:24.184Z,35.72
2018-07-03T13:32:56.331Z,37.43
2018-07-03T13:35:28.487Z,37.40
2018-07-03T13:38:00.627Z,38.14
2018-07-03T13:40:32.813Z,38.61
2018-07-03T13:43:05.273Z,38.84
2018-07-03T13:45:37.407Z,39.24
2018-07-03T13:48:09.668Z,38.03
2018-07-03T13:50:41.731Z,39.15
2018-07-03T13:53:13.884Z,38.48
2018-07-03T13:55:45.981Z,38.22
2018-07-03T13:58:18.160Z,38.89
2018-07-03T14:00:50.293Z,38.21
2018-07-03T14:03:22.424Z,38.85
2018-07-03T14:05:54.638Z,38.01
2018-07-03T14:08:27.024Z,37.87
2018-07-03T14:10:59.123Z,37.31
2018-07-03T14:13:31.257Z,37.82
2018-07-03T14:16:03.419Z,38.21
2018-07-03T14:18:35.559Z,39.44
2018-07-03T14:21:07.716Z,38.40
2018-07-03T14:23:39.860Z,38.21
2018-07-03T14:26:12.080Z,39.30
2018-07-03T14:28:44.198Z,40.09
2018-07-03T14:31:16.314Z,40.03
2018-07-03T14:33:48.521Z,37.51
2018-07-03T14:36:20.663Z,38.54
2018-07-03T14:38:52.759Z,36.97
2018-07-03T14:41:24.905Z,36.78
2018-07-03T14:43:57.131Z,38.19
2018-07-03T14:46:29.224Z,37.84
2018-07-03T14:49:01.371Z,39.37
2018-07-03T14:51:33.490Z,37.30
2018-07-03T14:54:05.851Z,36.68
2018-07-03T14:56:38.122Z,35.81
2018-07-03T14:59:10.415Z,36.20
2018-07-03T15:01:42.548Z,36.12
2018-07-03T15:04:14.752Z,35.35
2018-07-03T15:06:46.849Z,34.81
2018-07-03T15:09:19.039Z,34.97
2018-07-03T15:11:51.831Z,35.19
2018-07-03T15:14:23.982Z,34.51
2018-07-03T15:16:56.064Z,33.54
2018-07-03T15:19:33.783Z,32.47
2018-07-03T15:22:06.003Z,32.65
2018-07-03T15:24:38.199Z,32.84
2018-07-03T15:27:10.369Z,32.99
2018-07-03T15:29:42.483Z,33.40
2018-07-03T15:32:14.618Z,34.32
2018-07-03T15:34:46.840Z,33.53
2018-07-03T15:37:18.949Z,32.61
2018-07-03T15:39:51.103Z,31.81
2018-07-03T15:42:23.195Z,31.65
2018-07-03T15:45:07.705Z,30.83
2018-07-03T15:47:39.827Z,30.73
2018-07-03T15:50:12.768Z,30.34
2018-07-03T15:52:44.834Z,30.88
2018-07-03T15:55:16.959Z,30.95
2018-07-03T15:57:49.076Z,31.14
2018-07-03T16:00:21.260Z,30.99
2018-07-03T16:04:04.653Z,31.49
2018-07-03T16:07:04.935Z,30.70
2018-07-03T16:09:37.104Z,31.88
2018-07-03T16:12:09.224Z,32.94
2018-07-03T16:14:41.388Z,33.67
2018-07-03T16:17:13.553Z,33.81
2018-07-03T16:19:51.299Z,32.67
2018-07-03T16:22:30.335Z,31.91
2018-07-03T16:25:02.717Z,31.67
2018-07-03T16:27:34.816Z,31.54
2018-07-03T16:30:07.756Z,32.27
2018-07-03T16:32:40.016Z,32.25
2018-07-03T16:35:12.098Z,33.00
2018-07-03T16:37:44.267Z,33.31
2018-07-03T16:40:16.354Z,32.85
2018-07-03T16:42:48.456Z,32.16
2018-07-03T16:45:20.577Z,30.43
2018-07-03T16:47:52.721Z,30.08
2018-07-03T16:50:24.843Z,30.49
2018-07-03T16:52:56.979Z,30.87
2018-07-03T16:55:29.126Z,30.58
2018-07-03T16:58:01.247Z,30.62
2018-07-03T17:00:33.395Z,30.63
2018-07-03T17:03:05.563Z,30.91
2018-07-03T17:05:37.687Z,30.89
2018-07-03T17:08:09.827Z,30.24
2018-07-03T17:10:41.983Z,30.18
2018-07-03T17:13:14.095Z,30.07
2018-07-03T17:15:47.338Z,29.39
2018-07-03T17:18:19.487Z,29.27
2018-07-03T17:20:51.613Z,29.24
2018-07-03T17:23:23.724Z,28.70
2018-07-03T17:25:55.920Z,28.59
2018-07-03T17:28:28.119Z,28.55
2018-07-03T17:31:00.177Z,28.50
2018-07-03T17:33:32.291Z,28.46
2018-07-03T17:36:04.559Z,28.26
2018-07-03T17:38:36.708Z,28.19
2018-07-03T17:41:20.355Z,28.10
2018-07-03T17:45:02.779Z,28.13
2018-07-03T17:47:34.910Z,27.93
2018-07-03T17:50:07.011Z,27.70
2018-07-03T17:52:39.160Z,27.77
2018-07-03T17:55:11.318Z,27.65
2018-07-03T17:57:43.390Z,27.75
2018-07-03T18:00:15.556Z,27.66
2018-07-03T18:02:47.727Z,27.55
2018-07-03T18:05:19.895Z,27.56
2018-07-03T18:07:52.385Z,27.43
2018-07-03T18:10:24.594Z,27.39
2018-07-03T18:12:56.726Z,27.13
2018-07-03T18:15:28.886Z,26.94
2018-07-03T18:18:00.964Z,26.82
2018-07-03T18:20:33.084Z,26.60
2018-07-03T18:23:05.204Z,26.39
2018-07-03T18:25:37.422Z,26.19
2018-07-03T18:28:09.532Z,25.96
2018-07-03T18:30:41.624Z,25.96
2018-07-03T18:33:13.725Z,25.78
2018-07-03T18:35:45.851Z,25.58
2018-07-03T18:38:17.983Z,25.55
2018-07-03T18:40:50.108Z,25.38
2018-07-03T18:43:22.234Z,25.30
2018-07-03T18:45:54.348Z,25.13
2018-07-03T18:48:26.482Z,24.96
2018-07-03T18:50:58.649Z,24.90
2018-07-03T18:53:30.815Z,24.72
2018-07-03T18:56:02.950Z,24.64
2018-07-03T18:58:35.076Z,24.45
2018-07-03T19:01:07.223Z,24.27
2018-07-03T19:03:39.333Z,24.11
2018-07-03T19:06:11.439Z,23.93
2018-07-03T19:08:43.789Z,23.72
2018-07-03T19:11:15.940Z,23.51
2018-07-03T19:13:48.044Z,23.18
2018-07-03T19:16:26.054Z,22.89
2018-07-03T19:18:58.403Z,22.69
2018-07-03T19:21:30.531Z,22.53
2018-07-03T19:24:02.696Z,22.38
2018-07-03T19:26:34.810Z,22.28
2018-07-03T19:29:06.995Z,22.09
2018-07-03T19:31:39.130Z,22.00
2018-07-03T19:34:11.279Z,22.19
2018-07-03T19:36:43.484Z,22.16
2018-07-03T19:39:15.567Z,22.05
2018-07-03T19:41:47.652Z,21.92
2018-07-03T19:44:19.845Z,21.79
2018-07-03T19:46:52.018Z,21.69
2018-07-03T19:49:24.176Z,21.67
2018-07-03T19:51:56.384Z,21.59
2018-07-03T19:54:28.493Z,21.41
2018-07-03T19:57:00.643Z,21.21
2018-07-03T19:59:32.752Z,21.25
2018-07-03T20:02:05.012Z,21.14
2018-07-03T20:04:37.114Z,21.05
2018-07-03T20:07:09.248Z,20.97
2018-07-03T20:09:41.323Z,20.92
2018-07-03T20:12:13.423Z,20.96
2018-07-03T20:14:45.536Z,20.92
2018-07-03T20:17:17.629Z,20.67
2018-07-03T20:19:49.759Z,20.46
2018-07-03T20:22:21.974Z,20.37
2018-07-03T20:24:54.116Z,20.30
2018-07-03T20:27:26.179Z,20.11
2018-07-03T20:29:58.254Z,19.91
2018-07-03T20:32:30.383Z,20.10
2018-07-03T20:35:02.876Z,20.20
2018-07-03T20:37:51.739Z,20.08
2018-07-03T20:40:24.322Z,19.92
2018-07-03T20:42:57.213Z,19.98
2018-07-03T20:45:29.303Z,19.78
2018-07-03T20:48:01.473Z,19.82
2018-07-03T20:50:33.636Z,19.96
2018-07-03T20:53:05.767Z,19.71
2018-07-03T20:55:37.895Z,19.53
2018-07-03T20:58:10.178Z,19.47
2018-07-03T21:00:42.276Z,19.36
2018-07-03T21:03:14.391Z,19.52
2018-07-03T21:05:46.594Z,19.37
2018-07-03T21:08:18.658Z,19.23
2018-07-03T21:10:50.822Z,19.31
2018-07-03T21:13:22.973Z,19.39
2018-07-03T21:15:55.093Z,19.22
2018-07-03T21:18:27.240Z,19.04
2018-07-03T21:20:59.371Z,18.83
2018-07-03T21:23:31.467Z,18.75
2018-07-03T21:26:03.583Z,18.75
2018-07-03T21:28:35.705Z,18.68
2018-07-03T21:31:07.835Z,18.70
2018-07-03T21:33:39.967Z,18.70
2018-07-03T21:36:12.052Z,18.70
2018-07-03T21:38:44.199Z,18.54
2018-07-03T21:41:16.360Z,18.67
2018-07-03T21:43:48.460Z,18.69
2018-07-03T21:46:20.597Z,18.57
2018-07-03T21:48:52.735Z,18.59
2018-07-03T21:51:24.857Z,18.47
2018-07-03T21:53:56.974Z,18.41
2018-07-03T21:56:29.045Z,18.20
2018-07-03T21:59:01.216Z,18.02
2018-07-03T22:01:33.300Z,18.05
2018-07-03T22:04:05.465Z,17.91
2018-07-03T22:06:37.543Z,17.75
2018-07-03T22:09:11.612Z,17.69
2018-07-03T22:11:43.808Z,17.70
2018-07-03T22:14:16.088Z,17.45
2018-07-03T22:16:48.221Z,17.60
2018-07-03T22:19:20.315Z,17.59
2018-07-03T22:21:52.477Z,17.56
2018-07-03T22:24:24.542Z,17.49
2018-07-03T22:26:56.704Z,17.33
2018-07-03T22:29:28.809Z,17.40
2018-07-03T22:32:01.101Z,17.31
2018-07-03T22:34:33.193Z,17.45
2018-07-03T22:37:05.298Z,17.24
2018-07-03T22:39:37.495Z,17.16
2018-07-03T22:42:09.552Z,17.17
2018-07-03T22:44:41.714Z,17.05
2018-07-03T22:47:13.879Z,16.95
2018-07-03T22:49:46.016Z,16.90
2018-07-03T22:52:18.140Z,16.95
2018-07-03T22:54:50.332Z,16.98
2018-07-03T22:57:22.463Z,16.92
2018-07-03T22:59:54.560Z,16.96
2018-07-03T23:02:26.715Z,16.79
2018-07-03T23:04:58.801Z,16.67
2018-07-03T23:07:30.911Z,16.71
2018-07-03T23:10:03.111Z,16.75
2018-07-03T23:12:35.216Z,16.61
2018-07-03T23:15:07.352Z,16.55
2018-07-03T23:17:39.514Z,16.44
2018-07-03T23:20:11.674Z,16.40
2018-07-03T23:22:43.783Z,16.42
2018-07-03T23:25:15.933Z,16.43
2018-07-03T23:27:48.051Z,16.33
2018-07-03T23:30:20.181Z,16.27
2018-07-03T23:32:52.270Z,16.17
2018-07-03T23:35:24.384Z,16.12
2018-07-03T23:37:56.500Z,16.15
2018-07-03T23:40:28.622Z,16.19
2018-07-03T23:43:00.788Z,16.18
2018-07-03T23:45:52.083Z,16.23
2018-07-03T23:48:35.736Z,16.21
2018-07-03T23:51:19.949Z,16.25
2018-07-03T23:54:03.552Z,16.38
2018-07-03T23:56:47.327Z,16.57
2018-07-03T23:59:30.774Z,16.52
